Blackie, Canada
Current Conditions -  °F | °C
As of 7:00 PM on Sunday 21 Dec 2014 (Local Time) from CYYC Reporting Station
Broken Clouds Broken Clouds  
Wind Chill: 28°   Ceiling: 16000
Heat Index: 28°   Visibility: 15mi
Dew Point: 25°   Wind: 2mph
Humidity: 86%   Direction: 310°NW
Pressure: 29.57"   Gusts: NA
Location:  50.6°N, 113.62°W
Report Text: CYYC 220200Z 31002KT 15SM FEW100 BKN160 M02/M04 A2957 RMK AC2AC4 SLP050
Loading
Personal Weather Stations






























Interactive Weather Map New forecast layout! Learn more

10-Day Weather Forecast

Advertisements
Track Severe Weather on mobile